Time;durP1;ratioP1;P1;durP2;ratioP2;P2;SDS_P1;SDS_P2;PMS_P1;PMS_P2;Temp;Humidity;BMP_temperature;BMP_pressure;BME280_temperature;BME280_humidity;BME280_pressure;Samples;Min_cycle;Max_cycle;Signal;HPM_P1;HPM_P2
2022/11/02 00:01:24;;;;;;;13.93;7.47;;;10.70;99.90;;;;;;5049670;28;20415;-71
2022/11/02 00:03:49;;;;;;;13.80;7.63;;;10.60;99.90;;;;;;5028831;28;20440;-72
2022/11/02 00:06:15;;;;;;;10.00;7.97;;;10.60;99.90;;;;;;5032934;28;20434;-73
2022/11/02 00:08:40;;;;;;;12.13;6.63;;;10.60;99.90;;;;;;5032814;28;20215;-73
2022/11/02 00:11:06;;;;;;;12.37;8.40;;;10.60;99.90;;;;;;5034571;28;20513;-73
2022/11/02 00:13:31;;;;;;;9.63;7.27;;;10.60;99.90;;;;;;5033799;28;20171;-74
2022/11/02 00:16:01;;;;;;;8.53;7.27;;;10.70;99.90;;;;;;5034525;28;20372;-74
2022/11/02 00:18:26;;;;;;;10.30;6.50;;;10.60;99.90;;;;;;5035226;28;20187;-73
2022/11/02 00:20:54;;;;;;;10.67;7.97;;;10.60;99.90;;;;;;5034311;28;20474;-74
2022/11/02 00:23:19;;;;;;;11.90;7.93;;;10.60;99.90;;;;;;5027799;28;20183;-74
2022/11/02 00:25:47;;;;;;;13.17;7.87;;;10.60;99.90;;;;;;5038946;28;20920;-74
2022/11/02 00:28:13;;;;;;;8.07;6.57;;;10.50;99.90;;;;;;5039807;28;20685;-74
2022/11/02 00:30:39;;;;;;;7.10;6.40;;;10.50;99.90;;;;;;5041164;28;20410;-74
2022/11/02 00:33:05;;;;;;;10.87;7.40;;;10.50;99.90;;;;;;5039035;28;20414;-73
2022/11/02 00:35:32;;;;;;;12.20;7.70;;;10.50;99.90;;;;;;5039193;28;20168;-73
2022/11/02 00:37:57;;;;;;;15.07;7.57;;;10.50;99.90;;;;;;5039080;28;20223;-74
2022/11/02 00:40:23;;;;;;;10.30;7.00;;;10.50;99.90;;;;;;5036099;28;20808;-73
2022/11/02 00:42:48;;;;;;;11.33;7.50;;;10.50;99.90;;;;;;5046462;28;20223;-74
2022/11/02 00:45:14;;;;;;;8.80;7.30;;;10.40;99.90;;;;;;5046308;28;20237;-74
2022/11/02 00:47:39;;;;;;;10.03;7.27;;;10.40;99.90;;;;;;5038401;28;20187;-74
2022/11/02 00:50:05;;;;;;;13.20;8.27;;;10.30;99.90;;;;;;5034083;28;20178;-73
2022/11/02 00:52:31;;;;;;;8.07;7.27;;;10.20;99.90;;;;;;5033997;28;20183;-73
2022/11/02 00:54:56;;;;;;;9.60;6.23;;;10.30;99.90;;;;;;5029665;28;20397;-74
2022/11/02 00:57:22;;;;;;;7.40;6.70;;;10.20;99.90;;;;;;5029738;28;20274;-73
2022/11/02 00:59:47;;;;;;;8.90;6.03;;;10.20;99.90;;;;;;5026530;28;20231;-74
2022/11/02 01:02:13;;;;;;;9.83;7.20;;;10.10;99.90;;;;;;5022361;28;20174;-74
2022/11/02 01:04:38;;;;;;;9.60;8.10;;;10.10;99.90;;;;;;5045360;28;20259;-74
2022/11/02 01:07:04;;;;;;;9.23;6.10;;;10.10;99.90;;;;;;5026097;28;20200;-74
2022/11/02 01:09:30;;;;;;;13.93;7.77;;;10.20;99.90;;;;;;5032179;28;20183;-74
2022/11/02 01:11:56;;;;;;;7.83;6.20;;;10.20;99.90;;;;;;5032534;28;20723;-73
2022/11/02 01:14:21;;;;;;;7.47;6.60;;;10.10;99.90;;;;;;5028643;28;20662;-73
2022/11/02 01:16:47;;;;;;;10.13;6.43;;;10.20;99.90;;;;;;5013893;28;20450;-73
2022/11/02 01:19:13;;;;;;;9.47;6.63;;;10.10;99.90;;;;;;5029825;28;20187;-73
2022/11/02 01:21:39;;;;;;;7.00;5.80;;;10.10;99.90;;;;;;5031884;28;20188;-73
2022/11/02 01:24:05;;;;;;;14.53;6.50;;;10.10;99.90;;;;;;5032593;28;20872;-73
2022/11/02 01:26:30;;;;;;;11.87;5.97;;;10.10;99.90;;;;;;5032583;28;20167;-74
2022/11/02 01:28:56;;;;;;;7.87;5.40;;;10.00;99.90;;;;;;5033043;28;20426;-74
2022/11/02 01:31:21;;;;;;;7.77;5.70;;;10.00;99.90;;;;;;5032808;28;20178;-74
2022/11/02 01:33:47;;;;;;;7.00;5.67;;;10.00;99.90;;;;;;5033387;28;20699;-74
2022/11/02 01:36:19;;;;;;;6.87;5.47;;;10.00;99.90;;;;;;5029156;28;20189;-74
2022/11/02 01:38:45;;;;;;;6.47;4.70;;;10.00;99.90;;;;;;5031266;28;20206;-74
2022/11/02 01:41:11;;;;;;;5.53;4.90;;;9.90;99.90;;;;;;5032924;28;20765;-74
2022/11/02 01:43:40;;;;;;;12.40;5.70;;;9.90;99.90;;;;;;5032536;28;20398;-74
2022/11/02 01:46:15;;;;;;;8.10;5.00;;;9.80;99.90;;;;;;5032527;28;20833;-74
2022/11/02 01:48:51;;;;;;;8.37;5.03;;;9.80;99.90;;;;;;5032565;28;20872;-74
2022/11/02 01:51:26;;;;;;;7.97;4.60;;;9.80;99.90;;;;;;5032710;28;20828;-74
2022/11/02 01:53:54;;;;;;;5.90;4.80;;;9.80;99.90;;;;;;5019566;28;20466;-74
2022/11/02 01:56:22;;;;;;;6.17;4.20;;;9.80;99.90;;;;;;5011541;28;20806;-74
2022/11/02 01:58:52;;;;;;;6.70;4.43;;;9.80;99.90;;;;;;5012605;28;20457;-74
2022/11/02 02:01:17;;;;;;;6.20;4.10;;;9.80;99.90;;;;;;5013076;28;20408;-74
2022/11/02 02:03:44;;;;;;;5.90;4.47;;;9.80;99.90;;;;;;5020844;28;20414;-74
2022/11/02 02:06:16;;;;;;;4.50;4.10;;;9.80;99.90;;;;;;5052108;28;20165;-74
2022/11/02 02:08:45;;;;;;;5.03;4.60;;;9.80;99.90;;;;;;5037273;28;20449;-75
2022/11/02 02:11:29;;;;;;;4.33;3.93;;;9.80;99.90;;;;;;5025913;28;20424;-74
2022/11/02 02:13:57;;;;;;;4.60;3.70;;;9.90;99.90;;;;;;5030962;28;20406;-73
2022/11/02 02:16:47;;;;;;;5.87;3.87;;;9.80;99.90;;;;;;5032276;28;20685;-73
2022/11/02 02:19:36;;;;;;;7.20;4.30;;;9.80;99.90;;;;;;5032307;28;20522;-73
2022/11/02 02:22:29;;;;;;;13.20;3.77;;;9.80;99.90;;;;;;5032916;28;20420;-73
2022/11/02 02:25:16;;;;;;;3.57;3.03;;;9.80;99.90;;;;;;5032707;28;20417;-73
2022/11/02 02:28:14;;;;;;;3.20;2.60;;;9.80;99.90;;;;;;5025480;28;20446;-73
2022/11/02 02:30:48;;;;;;;6.37;3.03;;;9.70;99.90;;;;;;5031201;28;20416;-73
2022/11/02 02:33:26;;;;;;;3.67;3.37;;;9.70;99.90;;;;;;5030897;28;20439;-74
2022/11/02 02:36:05;;;;;;;5.83;3.30;;;9.60;99.90;;;;;;5033524;28;20416;-74
2022/11/02 02:38:41;;;;;;;5.90;3.53;;;9.60;99.90;;;;;;5034317;28;20427;-74
2022/11/02 02:41:29;;;;;;;7.93;4.03;;;9.70;99.90;;;;;;5034694;28;20401;-75
2022/11/02 02:43:57;;;;;;;5.00;3.13;;;9.60;99.90;;;;;;5029836;28;20801;-73
2022/11/02 02:46:38;;;;;;;3.17;2.87;;;9.60;99.90;;;;;;5024005;28;20580;-73
2022/11/02 02:49:07;;;;;;;3.43;2.60;;;9.60;99.90;;;;;;5015826;28;20887;-73
2022/11/02 02:51:34;;;;;;;5.43;3.80;;;9.50;99.90;;;;;;5023426;28;20460;-73
2022/11/02 02:54:10;;;;;;;3.30;3.00;;;9.40;99.90;;;;;;5030662;28;20413;-73
2022/11/02 02:56:40;;;;;;;4.77;3.10;;;9.40;99.90;;;;;;5030497;28;20828;-73
2022/11/02 02:59:11;;;;;;;5.63;2.70;;;9.40;99.90;;;;;;5030778;28;20539;-73
2022/11/02 03:01:41;;;;;;;4.47;3.23;;;9.40;99.90;;;;;;5030614;28;20436;-73
2022/11/02 03:04:12;;;;;;;3.80;3.17;;;9.40;99.90;;;;;;5038264;28;20507;-73
2022/11/02 03:06:39;;;;;;;9.03;4.00;;;9.40;99.90;;;;;;5051027;28;20408;-73
2022/11/02 03:09:15;;;;;;;5.60;3.10;;;9.50;99.90;;;;;;5054179;28;20444;-73
2022/11/02 03:11:48;;;;;;;3.33;2.50;;;9.50;99.90;;;;;;5055913;28;20769;-74
2022/11/02 03:14:45;;;;;;;3.40;2.10;;;9.50;99.90;;;;;;5058643;28;20413;-73
2022/11/02 03:17:17;;;;;;;4.40;2.20;;;9.50;99.90;;;;;;5048268;28;20427;-73
2022/11/02 03:20:14;;;;;;;3.07;2.60;;;9.50;99.90;;;;;;5014751;28;20556;-74
2022/11/02 03:23:32;;;;;;;4.53;2.80;;;9.40;99.90;;;;;;5008540;28;20464;-74
2022/11/02 03:26:10;;;;;;;3.63;2.00;;;9.50;99.90;;;;;;5010387;28;20422;-74
2022/11/02 03:28:51;;;;;;;4.83;2.83;;;9.50;99.90;;;;;;5013954;28;20928;-74
2022/11/02 03:31:22;;;;;;;6.43;2.77;;;9.50;99.90;;;;;;5012404;28;20897;-74
2022/11/02 03:34:20;;;;;;;4.70;2.70;;;9.40;99.90;;;;;;5009810;28;20410;-74
2022/11/02 03:36:56;;;;;;;4.17;2.40;;;9.40;99.90;;;;;;5010472;28;20484;-74
2022/11/02 03:39:49;;;;;;;2.60;2.30;;;9.40;99.90;;;;;;5009374;28;20449;-75
2022/11/02 03:42:22;;;;;;;5.53;2.70;;;9.30;99.90;;;;;;5010281;28;20421;-75
2022/11/02 03:44:53;;;;;;;4.50;3.37;;;9.30;99.90;;;;;;5011003;28;20475;-74
2022/11/02 03:47:20;;;;;;;3.50;2.50;;;9.30;99.90;;;;;;5011731;28;20425;-74
2022/11/02 03:49:49;;;;;;;3.97;2.03;;;9.30;99.90;;;;;;5010016;28;20430;-73
2022/11/02 03:52:20;;;;;;;4.40;2.70;;;9.20;99.90;;;;;;5009592;28;20532;-75
2022/11/02 03:54:53;;;;;;;6.57;2.80;;;9.10;99.90;;;;;;5029043;28;20422;-74
2022/11/02 03:57:24;;;;;;;5.37;3.10;;;9.10;99.90;;;;;;5030911;28;20435;-74
2022/11/02 03:59:49;;;;;;;4.43;2.00;;;9.10;99.90;;;;;;5031316;28;20460;-74
2022/11/02 04:02:17;;;;;;;5.20;2.67;;;9.10;99.90;;;;;;5029667;28;20505;-74
2022/11/02 04:04:52;;;;;;;4.33;2.00;;;9.10;99.90;;;;;;5042655;28;20775;-74
2022/11/02 04:07:24;;;;;;;3.20;2.57;;;9.00;99.90;;;;;;5051061;28;20557;-74
2022/11/02 04:09:49;;;;;;;2.50;2.23;;;9.10;99.90;;;;;;5017578;28;20951;-74
2022/11/02 04:15:00;;;;;;;5.97;2.73;;;9.00;99.90;;;;;;5017140;28;20689;-73
2022/11/02 04:20:11;;;;;;;3.30;2.43;;;9.00;99.90;;;;;;5011107;28;20237;-73
2022/11/02 04:25:20;;;;;;;3.57;2.70;;;9.10;99.90;;;;;;5011280;28;20448;-73
2022/11/02 04:27:51;;;;;;;3.90;2.70;;;9.10;99.90;;;;;;5011114;28;20446;-73
2022/11/02 04:30:19;;;;;;;3.00;2.80;;;9.10;99.90;;;;;;5008756;28;20188;-74
2022/11/02 04:35:33;;;;;;;4.43;2.30;;;9.00;99.90;;;;;;5028954;28;20943;-73
2022/11/02 04:40:43;;;;;;;3.20;2.90;;;9.00;99.90;;;;;;5030509;28;20462;-74
2022/11/02 04:43:08;;;;;;;7.17;2.90;;;9.00;99.90;;;;;;5030498;28;20420;-73
2022/11/02 04:45:34;;;;;;;8.10;3.00;;;9.00;99.90;;;;;;5032227;28;20176;-75
2022/11/02 04:48:09;;;;;;;3.77;2.23;;;9.00;99.90;;;;;;5032394;28;20191;-74
2022/11/02 04:50:36;;;;;;;2.80;1.70;;;9.00;99.90;;;;;;5030579;28;20186;-73
2022/11/02 04:53:07;;;;;;;4.37;3.27;;;9.00;99.90;;;;;;5021936;28;20767;-75
2022/11/02 04:55:33;;;;;;;6.33;3.37;;;9.00;99.90;;;;;;5014575;28;20441;-74
2022/11/02 04:57:58;;;;;;;6.87;2.60;;;8.90;99.90;;;;;;5027347;28;20444;-74
2022/11/02 05:00:24;;;;;;;5.60;2.10;;;9.00;99.90;;;;;;5025463;28;20930;-75
2022/11/02 05:02:50;;;;;;;2.90;2.10;;;9.00;99.90;;;;;;5012590;28;20190;-73
2022/11/02 05:05:16;;;;;;;4.13;2.60;;;8.90;99.90;;;;;;5031006;28;20170;-74
2022/11/02 05:07:43;;;;;;;2.93;2.03;;;8.90;99.90;;;;;;5027243;28;20818;-74
2022/11/02 05:10:09;;;;;;;5.20;2.10;;;8.90;99.90;;;;;;5033993;28;20783;-74
2022/11/02 05:12:34;;;;;;;4.00;1.83;;;8.90;99.90;;;;;;5034082;28;20409;-74
2022/11/02 05:15:00;;;;;;;4.10;2.57;;;8.90;99.90;;;;;;5034227;28;20423;-75
2022/11/02 05:17:25;;;;;;;5.60;2.23;;;8.90;99.90;;;;;;5038250;28;20201;-74
2022/11/02 05:19:51;;;;;;;10.70;2.57;;;8.90;99.90;;;;;;5034016;28;20190;-74
2022/11/02 05:22:16;;;;;;;10.27;2.83;;;8.90;99.90;;;;;;5027748;28;20201;-74
2022/11/02 05:24:42;;;;;;;6.10;2.20;;;8.90;99.90;;;;;;5027885;28;20230;-73
2022/11/02 05:27:08;;;;;;;4.33;1.90;;;8.90;99.90;;;;;;5033220;28;20201;-73
2022/11/02 05:29:34;;;;;;;5.90;2.57;;;9.00;99.90;;;;;;5013887;28;20181;-73
2022/11/02 05:32:00;;;;;;;6.00;2.10;;;8.90;99.90;;;;;;5023141;28;20434;-74
2022/11/02 05:34:25;;;;;;;5.00;1.83;;;8.90;99.90;;;;;;5031302;28;20180;-73
2022/11/02 05:36:51;;;;;;;7.47;2.50;;;8.90;99.90;;;;;;5033367;28;20181;-74
2022/11/02 05:39:16;;;;;;;2.50;2.30;;;9.00;99.90;;;;;;5034208;28;20200;-74
2022/11/02 05:41:42;;;;;;;5.33;2.37;;;8.90;99.90;;;;;;5034278;28;20170;-73
2022/11/02 05:44:07;;;;;;;3.77;2.43;;;8.90;99.90;;;;;;5038021;28;20181;-74
2022/11/02 05:46:33;;;;;;;5.23;2.20;;;8.90;99.90;;;;;;5043017;28;20171;-73
2022/11/02 05:48:58;;;;;;;2.43;2.00;;;8.80;99.90;;;;;;5045199;28;20559;-74
2022/11/02 05:51:24;;;;;;;3.77;2.30;;;8.90;99.90;;;;;;5042880;28;20265;-73
2022/11/02 05:53:49;;;;;;;3.63;3.00;;;8.90;99.90;;;;;;5061908;28;20179;-73
2022/11/02 05:56:15;;;;;;;7.90;2.30;;;8.90;99.90;;;;;;5064809;28;20633;-74
2022/11/02 05:58:40;;;;;;;2.77;1.80;;;8.80;99.90;;;;;;5061318;28;20200;-74
2022/11/02 06:01:07;;;;;;;7.33;2.23;;;8.90;99.90;;;;;;5064101;28;20168;-74
2022/11/02 06:03:33;;;;;;;2.07;1.67;;;8.90;99.90;;;;;;5045838;28;20174;-75
2022/11/02 06:06:05;;;;;;;5.70;2.07;;;8.80;99.90;;;;;;5013697;28;20446;-75
2022/11/02 06:08:32;;;;;;;3.20;2.23;;;8.80;99.90;;;;;;5042843;23;20488;-69
2022/11/02 06:11:02;;;;;;;4.23;2.07;;;8.80;99.90;;;;;;5032647;28;20442;-66
2022/11/02 06:13:27;;;;;;;6.70;2.73;;;8.90;99.90;;;;;;5033002;28;20823;-67
2022/11/02 06:15:53;;;;;;;3.93;2.07;;;8.90;99.90;;;;;;5031226;28;20406;-67
2022/11/02 06:18:18;;;;;;;2.07;1.70;;;8.90;99.90;;;;;;5032664;28;20240;-69
2022/11/02 06:20:43;;;;;;;4.70;2.90;;;8.90;99.90;;;;;;5017629;28;20213;-69
2022/11/02 06:23:09;;;;;;;4.17;1.73;;;8.90;99.90;;;;;;5020618;28;20174;-69
2022/11/02 06:25:34;;;;;;;4.67;2.10;;;8.80;99.90;;;;;;5012670;28;20172;-68
2022/11/02 06:28:00;;;;;;;3.73;2.20;;;8.90;99.90;;;;;;5030921;28;20214;-68
2022/11/02 06:30:25;;;;;;;6.07;1.90;;;9.10;99.90;;;;;;5032451;28;20214;-69
2022/11/02 06:32:53;;;;;;;4.03;1.90;;;9.20;99.90;;;;;;5032381;28;20174;-69
2022/11/02 06:35:20;;;;;;;5.30;2.20;;;9.20;99.90;;;;;;5032099;28;20187;-68
2022/11/02 06:37:46;;;;;;;7.67;2.70;;;9.20;99.90;;;;;;5016210;28;20556;-69
2022/11/02 06:40:12;;;;;;;6.83;2.43;;;9.60;99.90;;;;;;5010960;28;20553;-68
2022/11/02 06:42:39;;;;;;;5.37;2.07;;;9.60;99.90;;;;;;5013078;28;20419;-67
2022/11/02 06:45:06;;;;;;;14.33;2.40;;;9.40;99.90;;;;;;5021719;28;20438;-68
2022/11/02 06:47:33;;;;;;;7.83;2.63;;;9.50;99.90;;;;;;5013827;28;20413;-69
2022/11/02 06:49:59;;;;;;;6.00;1.90;;;9.60;99.90;;;;;;5018458;28;20423;-69
2022/11/02 06:52:26;;;;;;;10.77;2.40;;;9.50;99.90;;;;;;5018265;28;20485;-69
2022/11/02 06:54:52;;;;;;;1.93;1.57;;;9.40;99.90;;;;;;5020594;28;20985;-69
2022/11/02 06:57:18;;;;;;;3.13;1.90;;;9.30;99.90;;;;;;5021909;28;20959;-69
2022/11/02 06:59:44;;;;;;;2.23;1.67;;;9.30;99.90;;;;;;5030074;28;20539;-69
2022/11/02 07:02:10;;;;;;;7.83;2.10;;;9.30;99.90;;;;;;5010930;28;20430;-69
2022/11/02 07:04:35;;;;;;;5.43;2.57;;;9.40;99.90;;;;;;5007194;28;20419;-70
2022/11/02 07:07:01;;;;;;;8.00;2.33;;;9.40;99.90;;;;;;5010742;28;20201;-68
2022/11/02 07:09:27;;;;;;;3.50;2.30;;;9.60;99.90;;;;;;5010477;28;20215;-68
2022/11/02 07:11:52;;;;;;;8.23;2.70;;;9.70;99.90;;;;;;5011046;28;20697;-69
2022/11/02 07:14:18;;;;;;;9.80;2.33;;;9.80;99.90;;;;;;5010832;28;20232;-69
2022/11/02 07:16:43;;;;;;;6.20;1.90;;;10.00;99.90;;;;;;5010922;28;20172;-69
2022/11/02 07:19:09;;;;;;;3.47;1.60;;;10.00;99.90;;;;;;5010276;28;20230;-68
2022/11/02 07:21:34;;;;;;;5.27;2.10;;;10.00;99.90;;;;;;5011814;28;20165;-69
2022/11/02 07:24:00;;;;;;;4.70;1.83;;;10.00;99.90;;;;;;5011919;28;20602;-68
2022/11/02 07:26:26;;;;;;;4.23;2.10;;;10.10;99.90;;;;;;5011435;28;20212;-69
2022/11/02 07:28:52;;;;;;;10.63;2.33;;;10.20;99.90;;;;;;5008234;28;20190;-68
2022/11/02 07:31:17;;;;;;;4.10;2.80;;;10.20;99.90;;;;;;5008211;28;21152;-68
2022/11/02 07:33:43;;;;;;;6.40;3.03;;;10.40;99.90;;;;;;5013385;28;20183;-68
2022/11/02 07:36:08;;;;;;;5.03;2.03;;;10.60;99.90;;;;;;5030441;28;20167;-69
2022/11/02 07:38:34;;;;;;;5.97;1.93;;;10.70;99.90;;;;;;5028246;28;20199;-68
2022/11/02 07:40:59;;;;;;;3.43;2.10;;;10.90;99.90;;;;;;5010206;28;20732;-68
2022/11/02 07:43:25;;;;;;;4.93;1.67;;;11.00;99.90;;;;;;5011254;28;20689;-68
2022/11/02 07:45:50;;;;;;;4.40;2.40;;;11.40;99.90;;;;;;5018449;28;20241;-68
2022/11/02 07:48:16;;;;;;;3.73;1.57;;;11.50;99.90;;;;;;5030773;28;20267;-68
2022/11/02 07:50:41;;;;;;;5.73;2.10;;;11.90;99.90;;;;;;5001430;28;20184;-69
2022/11/02 07:53:08;;;;;;;4.20;2.23;;;12.60;99.90;;;;;;5005832;28;20177;-69
2022/11/02 07:55:34;;;;;;;6.33;2.10;;;12.90;99.90;;;;;;4991473;28;20165;-68
2022/11/02 07:58:06;;;;;;;4.00;1.70;;;13.80;99.90;;;;;;5010531;28;20935;-69
2022/11/02 08:00:36;;;;;;;3.50;1.80;;;14.00;99.90;;;;;;5002455;28;20177;-69
2022/11/02 08:03:02;;;;;;;6.00;1.63;;;13.70;99.90;;;;;;4991800;28;20784;-68
2022/11/02 08:05:29;;;;;;;3.53;1.50;;;13.40;99.90;;;;;;5003814;28;20408;-68
2022/11/02 08:07:59;;;;;;;3.60;1.60;;;13.40;99.90;;;;;;5006143;28;20450;-69
2022/11/02 08:10:25;;;;;;;10.30;4.60;;;13.00;99.90;;;;;;5010636;28;20946;-69
2022/11/02 08:12:50;;;;;;;6.27;2.00;;;13.60;99.90;;;;;;5026316;28;20413;-70
2022/11/02 08:15:16;;;;;;;4.00;1.50;;;13.70;99.90;;;;;;5030709;28;20414;-70
2022/11/02 08:17:41;;;;;;;2.60;1.50;;;13.00;99.90;;;;;;5025559;28;20233;-70
2022/11/02 08:20:08;;;;;;;3.90;1.87;;;12.60;99.90;;;;;;5030860;28;20232;-69
2022/11/02 08:22:37;;;;;;;4.60;1.67;;;12.40;99.90;;;;;;5016724;28;20184;-69
2022/11/02 08:25:03;;;;;;;2.37;1.30;;;12.50;99.90;;;;;;5016250;28;20827;-69
2022/11/02 08:27:29;;;;;;;2.57;1.60;;;12.60;99.90;;;;;;5010698;28;20477;-69
2022/11/02 08:29:54;;;;;;;4.13;1.70;;;12.60;99.90;;;;;;5014262;28;20509;-68
2022/11/02 08:32:20;;;;;;;5.80;1.80;;;12.90;99.90;;;;;;5013802;28;20177;-68
2022/11/02 08:34:45;;;;;;;3.90;2.10;;;13.00;99.90;;;;;;5014271;28;20277;-68
2022/11/02 08:37:11;;;;;;;5.53;2.03;;;12.70;99.90;;;;;;5013440;28;20667;-68
2022/11/02 08:39:36;;;;;;;8.13;3.20;;;12.70;99.90;;;;;;5012942;28;20529;-69
2022/11/02 08:42:02;;;;;;;6.03;3.07;;;12.40;99.90;;;;;;5014474;28;20242;-68
2022/11/02 08:44:28;;;;;;;4.67;1.70;;;12.50;99.90;;;;;;5011189;28;20203;-69
2022/11/02 08:46:54;;;;;;;3.77;1.70;;;12.70;99.90;;;;;;5023345;28;20664;-69
2022/11/02 08:49:20;;;;;;;4.50;2.30;;;12.50;99.90;;;;;;5004446;28;20193;-68
2022/11/02 08:51:46;;;;;;;7.23;2.73;;;12.50;99.90;;;;;;4993881;28;21083;-68
2022/11/02 08:54:12;;;;;;;6.30;2.20;;;12.40;99.90;;;;;;5010389;28;20171;-68
2022/11/02 08:56:38;;;;;;;2.63;1.67;;;12.40;99.90;;;;;;5006535;28;20580;-68
2022/11/02 08:59:03;;;;;;;5.90;1.20;;;12.50;99.90;;;;;;5009997;28;20459;-68
2022/11/02 09:01:29;;;;;;;7.33;2.37;;;12.30;99.90;;;;;;5013190;28;20172;-68
2022/11/02 09:03:55;;;;;;;3.50;1.90;;;12.30;99.90;;;;;;5033219;28;20175;-68
2022/11/02 09:06:20;;;;;;;9.60;2.07;;;12.50;99.90;;;;;;5018899;28;20522;-70
2022/11/02 09:08:46;;;;;;;3.33;1.70;;;12.30;99.90;;;;;;4997234;28;20632;-68
2022/11/02 09:11:11;;;;;;;5.53;2.43;;;12.30;99.90;;;;;;4999160;28;20179;-68
2022/11/02 09:13:37;;;;;;;5.67;2.50;;;12.50;99.90;;;;;;5014375;28;20706;-68
2022/11/02 09:16:03;;;;;;;7.30;2.17;;;12.70;99.90;;;;;;5008722;28;20176;-68
2022/11/02 09:18:30;;;;;;;7.50;2.00;;;12.70;99.90;;;;;;5010727;28;20199;-68
2022/11/02 09:20:56;;;;;;;4.40;1.80;;;12.80;99.90;;;;;;5012354;28;20200;-69
2022/11/02 09:23:22;;;;;;;5.27;1.53;;;12.90;99.90;;;;;;5016020;28;20404;-68
2022/11/02 09:25:48;;;;;;;4.27;2.93;;;13.10;99.90;;;;;;5012393;28;20433;-69
2022/11/02 09:28:14;;;;;;;3.27;1.63;;;13.10;99.90;;;;;;5006761;28;21096;-68
2022/11/02 09:30:40;;;;;;;6.30;2.27;;;13.40;99.90;;;;;;5010320;28;20419;-68
2022/11/02 09:33:06;;;;;;;7.03;2.03;;;13.30;99.90;;;;;;5012671;28;20186;-69
2022/11/02 09:35:34;;;;;;;2.60;1.97;;;13.20;99.90;;;;;;5012407;28;20473;-69
2022/11/02 09:38:00;;;;;;;4.70;2.20;;;13.20;99.90;;;;;;5015180;28;20451;-69
2022/11/02 09:40:50;;;;;;;6.27;1.63;;;13.30;99.90;;;;;;5016987;28;20495;-68
2022/11/02 09:43:34;;;;;;;6.03;2.77;;;13.40;99.90;;;;;;5011718;28;20567;-68
2022/11/02 09:46:25;;;;;;;5.10;2.50;;;13.40;99.90;;;;;;5005780;28;20416;-68
2022/11/02 09:49:02;;;;;;;5.53;2.40;;;13.40;99.90;;;;;;5012809;28;20415;-69
2022/11/02 09:51:40;;;;;;;3.57;2.53;;;13.30;99.90;;;;;;4996138;28;20463;-69
2022/11/02 09:54:24;;;;;;;8.77;2.67;;;13.40;99.90;;;;;;5021854;28;20419;-68
2022/11/02 09:56:51;;;;;;;3.47;2.33;;;13.50;99.90;;;;;;5031559;28;20796;-69
2022/11/02 09:59:18;;;;;;;4.40;1.93;;;13.50;99.90;;;;;;5032626;28;20952;-69
2022/11/02 10:02:01;;;;;;;6.63;2.87;;;13.50;99.90;;;;;;5024347;28;20505;-69
2022/11/02 10:05:00;;;;;;;6.13;3.00;;;13.60;99.90;;;;;;5005851;28;20442;-68
2022/11/02 10:08:00;;;;;;;6.77;4.60;;;13.80;99.90;;;;;;5004222;28;20485;-68
2022/11/02 10:10:40;;;;;;;8.23;2.07;;;13.90;99.90;;;;;;5007152;28;20474;-68
2022/11/02 10:13:36;;;;;;;11.43;3.20;;;14.00;99.90;;;;;;4993762;28;20902;-70
2022/11/02 10:16:18;;;;;;;7.10;1.97;;;14.10;99.90;;;;;;5018408;28;20412;-69
2022/11/02 10:18:48;;;;;;;4.83;2.20;;;14.10;99.90;;;;;;5012735;28;20434;-69
2022/11/02 10:21:23;;;;;;;7.53;2.17;;;14.00;99.90;;;;;;5021404;28;20920;-69
2022/11/02 10:23:53;;;;;;;3.67;2.27;;;14.00;99.90;;;;;;5025876;28;20431;-68
2022/11/02 10:26:42;;;;;;;4.53;3.27;;;14.10;99.90;;;;;;5010997;28;20412;-69
2022/11/02 10:29:25;;;;;;;7.53;2.07;;;14.20;99.90;;;;;;5010701;28;20485;-68
2022/11/02 10:31:51;;;;;;;2.40;2.00;;;14.30;99.90;;;;;;5015793;28;20411;-70
2022/11/02 10:34:26;;;;;;;3.53;2.07;;;14.30;99.90;;;;;;5027883;28;20509;-68
2022/11/02 10:37:13;;;;;;;3.40;2.23;;;14.30;99.90;;;;;;5011576;28;20604;-68
2022/11/02 10:39:45;;;;;;;6.47;2.03;;;14.40;99.90;;;;;;5010634;28;20459;-68
2022/11/02 10:42:13;;;;;;;8.43;2.03;;;14.50;99.90;;;;;;5010052;28;20420;-68
2022/11/02 10:45:31;;;;;;;10.40;3.63;;;14.40;99.90;;;;;;5011049;28;20419;-68
2022/11/02 10:48:37;;;;;;;3.67;1.60;;;14.50;99.90;;;;;;4951720;28;20533;-68
2022/11/02 10:51:11;;;;;;;3.37;1.97;;;14.60;99.90;;;;;;5010623;28;20734;-68
2022/11/02 10:53:44;;;;;;;4.57;1.77;;;14.60;99.90;;;;;;5010040;28;20463;-68
2022/11/02 10:56:19;;;;;;;4.13;1.23;;;14.70;99.90;;;;;;5010710;28;20417;-68
2022/11/02 10:59:14;;;;;;;6.10;1.50;;;14.80;99.90;;;;;;5010409;28;20445;-68
2022/11/02 11:01:50;;;;;;;10.27;1.87;;;14.80;99.90;;;;;;5010770;28;20406;-68
2022/11/02 11:04:28;;;;;;;1.97;1.20;;;14.90;99.90;;;;;;5010402;28;20421;-70
2022/11/02 11:06:55;;;;;;;5.67;1.17;;;15.00;99.90;;;;;;5015711;28;20515;-70
2022/11/02 11:09:29;;;;;;;4.30;1.63;;;15.00;99.90;;;;;;5013224;28;20880;-68
2022/11/02 11:12:11;;;;;;;6.00;1.27;;;14.90;99.90;;;;;;5008946;28;20732;-68
2022/11/02 11:14:47;;;;;;;5.83;1.47;;;15.00;99.90;;;;;;5018798;28;20422;-68
2022/11/02 11:17:20;;;;;;;4.87;1.23;;;15.00;99.90;;;;;;5010496;28;20409;-69
2022/11/02 11:19:54;;;;;;;6.17;1.90;;;15.10;99.90;;;;;;5010226;28;20965;-69
2022/11/02 11:22:27;;;;;;;4.60;1.67;;;15.10;99.90;;;;;;5009074;28;20408;-69
2022/11/02 11:25:05;;;;;;;6.20;1.60;;;15.10;99.90;;;;;;5011808;28;20904;-69
2022/11/02 11:27:53;;;;;;;2.53;1.13;;;15.10;99.90;;;;;;5012088;28;20428;-69
2022/11/02 11:30:32;;;;;;;2.70;1.60;;;15.10;99.90;;;;;;5010134;28;20411;-69
2022/11/02 11:32:59;;;;;;;3.70;1.43;;;15.30;99.90;;;;;;5010249;28;20859;-70
2022/11/02 11:35:31;;;;;;;3.97;1.43;;;15.30;99.90;;;;;;5010150;28;20562;-69
2022/11/02 11:38:03;;;;;;;3.50;1.37;;;15.20;99.90;;;;;;5010729;28;20531;-69
2022/11/02 11:40:34;;;;;;;6.53;1.77;;;15.20;99.90;;;;;;5010698;28;20447;-67
2022/11/02 11:43:01;;;;;;;3.03;1.10;;;15.20;99.90;;;;;;5011723;28;20417;-68
2022/11/02 11:45:29;;;;;;;4.17;1.90;;;15.20;99.90;;;;;;5007795;28;20478;-68
2022/11/02 11:48:23;;;;;;;4.37;1.63;;;15.40;99.90;;;;;;5010852;28;20450;-69
2022/11/02 11:50:49;;;;;;;5.40;2.10;;;15.30;99.90;;;;;;5016903;28;20919;-69
2022/11/02 11:53:24;;;;;;;3.90;1.73;;;15.20;99.90;;;;;;5014369;28;20420;-69
2022/11/02 11:55:52;;;;;;;3.70;1.60;;;15.00;99.90;;;;;;5022747;28;20419;-69
2022/11/02 11:58:22;;;;;;;3.67;1.23;;;15.10;99.90;;;;;;5019880;28;20961;-68
2022/11/02 12:01:15;;;;;;;6.40;1.67;;;15.20;99.90;;;;;;5019335;28;20480;-69
2022/11/02 12:03:55;;;;;;;3.73;1.53;;;15.30;99.90;;;;;;5017274;28;20975;-69
2022/11/02 12:06:32;;;;;;;4.70;1.87;;;15.50;99.90;;;;;;5014739;28;20431;-69
2022/11/02 12:09:17;;;;;;;2.67;1.47;;;15.50;99.90;;;;;;5014656;28;20516;-69
2022/11/02 12:11:43;;;;;;;5.73;1.50;;;15.20;99.90;;;;;;5015756;28;20902;-69
2022/11/02 12:14:38;;;;;;;2.20;1.40;;;15.20;99.90;;;;;;5019783;28;20425;-69
2022/11/02 12:17:18;;;;;;;2.73;1.20;;;15.20;99.90;;;;;;5022167;28;20645;-69
2022/11/02 12:19:49;;;;;;;4.67;1.60;;;15.30;99.90;;;;;;5025942;28;20468;-68
2022/11/02 12:22:35;;;;;;;7.83;1.63;;;15.40;99.90;;;;;;5014731;28;20421;-68
2022/11/02 12:25:25;;;;;;;3.00;1.63;;;15.30;99.90;;;;;;5020430;28;20436;-68
2022/11/02 12:28:21;;;;;;;3.90;1.50;;;15.30;99.90;;;;;;5025036;28;20434;-69
2022/11/02 12:31:29;;;;;;;6.63;1.73;;;15.50;99.90;;;;;;5015104;28;20602;-70
2022/11/02 12:34:03;;;;;;;3.30;1.40;;;15.50;99.90;;;;;;5009371;28;21082;-69
2022/11/02 12:37:04;;;;;;;2.40;1.37;;;15.40;99.90;;;;;;5028220;28;20413;-69
2022/11/02 12:39:53;;;;;;;3.03;1.50;;;15.40;99.90;;;;;;5018659;28;20462;-68
2022/11/02 12:42:28;;;;;;;2.40;1.40;;;15.40;99.90;;;;;;5018794;28;20425;-68
2022/11/02 12:45:24;;;;;;;9.20;2.07;;;15.50;99.90;;;;;;5027706;28;20960;-68
2022/11/02 12:48:02;;;;;;;4.80;1.20;;;15.40;99.90;;;;;;5013305;28;20950;-68
2022/11/02 12:51:19;;;;;;;2.77;1.43;;;15.40;99.90;;;;;;5022768;28;20714;-68
2022/11/02 12:53:56;;;;;;;3.80;1.67;;;15.50;99.90;;;;;;5009225;28;20411;-69
2022/11/02 12:56:38;;;;;;;1.10;1.00;;;15.50;99.90;;;;;;5019259;28;20416;-69
2022/11/02 12:59:04;;;;;;;1.20;1.03;;;15.50;99.90;;;;;;4997873;28;20466;-68
2022/11/02 13:01:39;;;;;;;2.07;1.10;;;15.60;99.90;;;;;;5023479;28;20420;-69
2022/11/02 13:04:20;;;;;;;3.10;2.07;;;15.60;99.90;;;;;;5029666;28;20774;-68
2022/11/02 13:06:50;;;;;;;3.93;2.27;;;15.40;99.90;;;;;;5014696;28;20417;-68
2022/11/02 13:09:49;;;;;;;1.67;1.30;;;15.50;99.90;;;;;;5011350;28;20531;-68
2022/11/02 13:12:19;;;;;;;1.20;1.07;;;15.40;99.90;;;;;;5020291;28;20428;-69
2022/11/02 13:14:48;;;;;;;1.90;1.33;;;15.30;99.90;;;;;;5022765;28;20435;-68
2022/11/02 13:17:26;;;;;;;3.23;1.43;;;15.20;99.90;;;;;;5013005;28;20449;-68
2022/11/02 13:20:05;;;;;;;7.43;1.63;;;15.20;99.90;;;;;;5012128;28;20476;-69
2022/11/02 13:22:37;;;;;;;3.20;1.20;;;15.40;99.90;;;;;;5014237;28;20448;-68
2022/11/02 13:25:18;;;;;;;3.80;1.07;;;15.40;99.90;;;;;;5020259;28;20820;-69
2022/11/02 13:27:57;;;;;;;3.60;1.80;;;15.40;99.90;;;;;;5026516;28;20791;-69